Time;durP1;ratioP1;P1;durP2;ratioP2;P2;SDS_P1;SDS_P2;PMS_P1;PMS_P2;Temp;Humidity;BMP_temperature;BMP_pressure;BME280_temperature;BME280_humidity;BME280_pressure;Samples;Min_cycle;Max_cycle;Signal;HPM_P1;HPM_P2
2021/12/18 00:25:40;;;;;;;12.60;4.40;;;;;;;1.94;83.29;99890.21;104847;1323;23437;-92
2021/12/18 00:50:04;;;;;;;15.80;4.70;;;;;;;1.95;82.96;99912.96;104519;1331;25312;-93
2021/12/18 01:06:16;;;;;;;9.90;3.20;;;;;;;1.75;84.15;99910.02;105388;1325;23837;-95
2021/12/18 02:26:44;;;;;;;;;;;;;;;;;;;;;
2021/12/18 02:30:07;;;;;;;;;;;;;;;;;;;;;
2021/12/18 04:05:14;;;;;;;9.80;3.30;;;;;;;1.57;84.74;99982.21;103886;1331;22624;-91
2021/12/18 04:39:10;;;;;;;8.30;4.50;;;;;;;1.63;84.79;99954.48;103566;1337;137458;-92
2021/12/18 04:41:43;;;;;;;13.40;4.50;;;;;;;1.63;84.60;99953.38;103424;1343;23129;-91
2021/12/18 04:44:32;;;;;;;7.60;3.60;;;;;;;1.63;84.67;99963.42;103716;1330;137222;-93
2021/12/18 04:47:37;;;;;;;;;;;;;;;1.60;84.71;99970.52;103930;1329;22713;-94
2021/12/18 05:06:50;;;;;;;13.90;6.80;;;;;;;1.47;85.64;99967.09;104690;1333;29510;-93
2021/12/18 05:50:16;;;;;;;17.10;8.70;;;;;;;1.68;85.42;99989.77;104423;1323;137183;-94
2021/12/18 06:00:03;;;;;;;16.30;7.60;;;;;;;1.64;85.40;99999.65;103892;1327;22755;-93
2021/12/18 06:03:26;;;;;;;19.10;8.10;;;;;;;1.56;85.32;99993.06;103773;1331;137648;-92
2021/12/18 06:14:00;;;;;;;14.80;7.00;;;;;;;1.60;85.31;99995.17;103889;1328;23989;-91
2021/12/18 06:20:13;;;;;;;12.80;6.70;;;;;;;1.55;85.13;99993.96;103956;1329;24023;-92
2021/12/18 06:23:20;;;;;;;15.30;6.50;;;;;;;1.52;85.10;99996.52;103685;1324;137182;-93
2021/12/18 06:26:53;;;;;;;17.10;6.90;;;;;;;1.50;85.24;100000.64;103941;1328;137356;-95
2021/12/18 06:30:02;;;;;;;12.80;6.10;;;;;;;1.48;85.22;100005.52;104454;1325;22609;-93
2021/12/18 06:36:30;;;;;;;16.60;6.60;;;;;;;1.48;85.22;99995.34;104245;1327;22657;-90
2021/12/18 06:39:05;;;;;;;18.10;6.50;;;;;;;1.48;85.09;99991.73;103533;1329;137427;-91
2021/12/18 06:41:35;;;;;;;13.50;6.40;;;;;;;1.48;85.15;99989.02;104039;1325;25384;-92
2021/12/18 06:44:03;;;;;;;12.30;6.10;;;;;;;1.46;84.94;99996.17;103591;1331;22739;-90
2021/12/18 06:46:31;;;;;;;12.30;6.30;;;;;;;1.44;84.96;99999.65;103595;1329;136807;-93
2021/12/18 06:49:00;;;;;;;13.30;6.80;;;;;;;1.41;85.04;100007.92;103661;1328;22540;-91
2021/12/18 06:51:28;;;;;;;13.30;6.10;;;;;;;1.41;84.99;100004.02;103750;1324;138094;-92
2021/12/18 06:57:37;;;;;;;8.00;4.50;;;;;;;1.41;85.32;99997.77;103659;1324;137268;-93
2021/12/18 07:00:29;;;;;;;13.70;6.20;;;;;;;1.40;85.15;99996.64;103701;1329;25517;-92
2021/12/18 07:02:59;;;;;;;19.60;7.30;;;;;;;1.38;85.35;99993.10;103712;1327;137363;-91
2021/12/18 07:15:52;;;;;;;11.90;6.60;;;;;;;1.54;85.29;99980.97;103856;1322;136956;-91
2021/12/18 07:18:39;;;;;;;15.40;6.80;;;;;;;1.51;84.94;99983.21;104184;1328;22829;-91
2021/12/18 07:21:29;;;;;;;11.90;6.50;;;;;;;1.55;84.99;99991.24;103925;1325;138307;-92
2021/12/18 07:24:58;;;;;;;16.70;6.50;;;;;;;1.56;84.89;99987.39;103992;1327;22817;-92
2021/12/18 07:28:05;;;;;;;18.30;7.80;;;;;;;1.56;84.87;99989.14;103933;1329;136877;-93
2021/12/18 07:31:12;;;;;;;9.50;5.30;;;;;;;1.55;84.90;99985.30;103880;1324;33558;-91
2021/12/18 07:33:43;;;;;;;18.70;7.80;;;;;;;1.54;84.66;99986.33;103453;1327;137467;-91
2021/12/18 07:39:04;;;;;;;10.60;5.50;;;;;;;1.54;84.86;99982.55;104169;1324;137465;-90
2021/12/18 07:47:50;;;;;;;12.40;5.90;;;;;;;1.50;84.98;99980.40;103499;1327;22831;-92
2021/12/18 07:53:03;;;;;;;15.90;6.00;;;;;;;1.53;84.61;99979.64;104026;1321;138411;-91
2021/12/18 07:55:30;;;;;;;12.40;5.40;;;;;;;1.55;84.79;99979.84;103569;1328;22613;-91
2021/12/18 08:04:30;;;;;;;12.50;5.50;;;;;;;1.59;84.33;99980.28;103093;1327;140261;-92
2021/12/18 08:06:58;;;;;;;8.70;4.50;;;;;;;1.63;84.02;99979.20;102898;1334;24236;-91
2021/12/18 08:12:45;;;;;;;13.60;5.30;;;;;;;1.63;83.86;99971.10;103322;1333;29781;-92
2021/12/18 08:15:14;;;;;;;10.80;4.10;;;;;;;1.71;83.73;99982.28;103267;1327;138418;-91
2021/12/18 08:17:45;;;;;;;8.50;4.70;;;;;;;1.75;83.47;99996.79;102871;1327;25419;-90
2021/12/18 08:20:15;;;;;;;9.40;4.30;;;;;;;1.77;83.29;99998.25;103345;1327;22577;-92
2021/12/18 08:22:41;;;;;;;;;;;;;;;1.76;83.31;99995.14;103159;1327;137698;-92
2021/12/18 08:25:10;;;;;;;12.90;4.60;;;;;;;1.74;83.30;99990.96;103404;1332;22622;-91
2021/12/18 08:27:37;;;;;;;10.60;4.20;;;;;;;1.75;82.66;99985.34;103353;1327;138514;-93
2021/12/18 08:30:26;;;;;;;;;;;;;;;1.78;82.54;99979.67;103088;1330;22604;-93
2021/12/18 08:33:28;;;;;;;8.70;4.40;;;;;;;1.87;82.54;99985.41;103364;1329;123497;-91
2021/12/18 08:35:56;;;;;;;9.90;4.20;;;;;;;1.90;81.68;99995.69;102964;1327;24270;-89
2021/12/18 08:38:23;;;;;;;10.40;4.70;;;;;;;1.89;81.68;99999.14;102928;1329;22630;-92
2021/12/18 08:40:52;;;;;;;13.40;4.60;;;;;;;1.88;81.44;99997.98;103079;1327;138626;-90
2021/12/18 08:43:20;;;;;;;7.90;3.90;;;;;;;1.88;80.72;99994.59;103131;1325;24036;-91
2021/12/18 08:45:48;;;;;;;10.20;4.90;;;;;;;1.85;80.03;99990.11;102633;1330;137194;-91
2021/12/18 08:54:06;;;;;;;7.60;4.60;;;;;;;1.73;80.45;99988.58;104063;1330;30473;-91
2021/12/18 08:56:34;;;;;;;12.40;6.40;;;;;;;1.75;80.30;99993.96;103331;1329;24363;-91
2021/12/18 08:59:18;;;;;;;19.50;10.90;;;;;;;1.75;80.30;99994.30;103365;1327;137805;-94
2021/12/18 09:01:54;;;;;;;23.10;14.50;;;;;;;1.79;80.48;99990.70;103494;1326;24058;-91
2021/12/18 09:04:23;;;;;;;17.70;13.00;;;;;;;1.80;80.21;99983.27;103274;1329;137446;-91
2021/12/18 09:06:50;;;;;;;;;;;;;;;1.86;79.94;99983.05;102745;1333;22616;-91
2021/12/18 09:12:57;;;;;;;;;;;;;;;1.87;80.11;99971.30;104429;1329;23011;-93
2021/12/18 09:18:20;;;;;;;11.90;5.10;;;;;;;1.92;79.89;99962.02;104544;1323;23410;-92
2021/12/18 09:20:48;;;;;;;17.10;6.10;;;;;;;1.95;79.53;99958.15;102846;1329;22966;-89
2021/12/18 09:23:18;;;;;;;10.80;5.60;;;;;;;1.97;79.51;99959.86;103077;1333;137302;-93
2021/12/18 09:28:45;;;;;;;13.10;5.80;;;;;;;2.05;79.03;99944.63;103685;1327;137205;-91
2021/12/18 09:31:30;;;;;;;10.70;5.10;;;;;;;2.07;78.72;99945.81;103643;1327;24284;-95
2021/12/18 09:33:57;;;;;;;11.30;5.50;;;;;;;2.07;78.30;99940.08;103456;1327;137370;-87
2021/12/18 09:39:17;;;;;;;15.00;6.30;;;;;;;2.13;78.24;99934.10;103956;1319;138066;-82
2021/12/18 09:41:49;;;;;;;15.80;7.10;;;;;;;2.17;78.50;99934.82;103318;1322;24395;-78
2021/12/18 09:44:24;;;;;;;16.80;7.90;;;;;;;2.21;78.43;99934.79;103312;1329;24264;-78
2021/12/18 09:46:52;;;;;;;18.80;7.10;;;;;;;2.23;78.53;99941.54;102748;1329;139132;-78
2021/12/18 09:49:19;;;;;;;17.50;8.10;;;;;;;2.24;78.68;99944.85;102735;1327;23075;-77
2021/12/18 09:51:47;;;;;;;15.60;7.80;;;;;;;2.24;78.77;99942.73;103317;1325;138577;-77
2021/12/18 09:54:15;;;;;;;18.70;9.10;;;;;;;2.23;78.92;99932.02;103176;1329;22313;-78
2021/12/18 09:56:43;;;;;;;18.50;8.30;;;;;;;2.26;79.29;99928.33;103177;1324;22648;-77
2021/12/18 09:59:10;;;;;;;24.70;9.80;;;;;;;2.30;78.86;99929.25;102636;1325;137476;-77
2021/12/18 10:01:37;;;;;;;17.80;7.90;;;;;;;2.33;78.92;99925.55;102604;1327;22609;-75
2021/12/18 10:04:05;;;;;;;17.80;7.60;;;;;;;2.35;78.86;99919.02;103062;1324;137046;-74
2021/12/18 10:06:38;;;;;;;18.70;9.10;;;;;;;2.36;78.81;99902.80;103596;1324;25321;-75
2021/12/18 10:09:11;;;;;;;23.70;9.40;;;;;;;2.38;78.86;99887.21;103319;1331;22634;-75
2021/12/18 10:12:14;;;;;;;19.90;9.50;;;;;;;2.38;78.57;99881.74;103059;1325;137142;-75
2021/12/18 10:14:48;;;;;;;20.90;10.10;;;;;;;2.39;78.59;99883.44;102772;1325;25367;-74
2021/12/18 10:17:36;;;;;;;19.80;9.10;;;;;;;2.40;78.44;99879.60;103380;1325;137858;-75
2021/12/18 10:20:23;;;;;;;18.40;8.90;;;;;;;2.42;78.48;99880.33;102734;1328;24262;-75
2021/12/18 10:22:55;;;;;;;16.90;8.30;;;;;;;2.43;78.11;99882.48;103349;1328;137218;-75
2021/12/18 10:25:31;;;;;;;16.10;8.10;;;;;;;2.41;78.03;99891.38;103420;1323;23600;-75
2021/12/18 10:28:20;;;;;;;18.60;8.70;;;;;;;2.36;77.77;99893.81;103178;1324;137194;-75
2021/12/18 10:30:52;;;;;;;14.60;7.80;;;;;;;2.31;78.10;99888.08;102989;1325;22567;-75
2021/12/18 10:33:27;;;;;;;21.00;8.70;;;;;;;2.29;78.24;99896.35;102793;1325;137397;-75
2021/12/18 10:35:57;;;;;;;21.50;9.80;;;;;;;2.27;78.32;99898.09;102907;1325;22609;-75
2021/12/18 10:38:49;;;;;;;20.30;10.40;;;;;;;2.29;78.34;99891.48;102783;1331;22689;-75
2021/12/18 10:41:32;;;;;;;16.70;8.50;;;;;;;2.32;78.33;99883.70;102434;1325;137559;-75
2021/12/18 10:44:03;;;;;;;12.50;8.00;;;;;;;2.33;78.15;99876.92;103197;1324;25068;-75
2021/12/18 10:46:32;;;;;;;16.10;8.90;;;;;;;2.30;78.00;99869.68;102648;1328;136994;-75
2021/12/18 10:49:18;;;;;;;16.10;8.30;;;;;;;2.27;78.17;99869.29;102500;1324;237435;-75
2021/12/18 10:51:48;;;;;;;20.40;10.60;;;;;;;2.32;79.37;99869.29;102856;1325;138543;-75
2021/12/18 10:54:24;;;;;;;17.50;8.40;;;;;;;2.45;78.96;99867.95;103129;1324;22540;-76
2021/12/18 10:57:19;;;;;;;18.70;9.60;;;;;;;2.53;78.15;99861.73;102735;1324;30842;-75
2021/12/18 10:59:48;;;;;;;17.60;10.10;;;;;;;2.53;78.10;99854.25;102853;1324;136668;-75
2021/12/18 11:02:15;;;;;;;18.50;9.50;;;;;;;2.53;78.20;99848.92;102825;1325;22730;-75
2021/12/18 11:04:44;;;;;;;21.30;9.50;;;;;;;2.51;77.79;99843.76;102506;1328;137415;-75
2021/12/18 11:07:31;;;;;;;23.40;9.40;;;;;;;2.45;77.59;99835.86;102711;1325;22609;-75
2021/12/18 11:10:54;;;;;;;18.90;8.90;;;;;;;2.41;77.72;99828.27;102769;1331;138249;-75
2021/12/18 11:16:08;;;;;;;16.60;8.60;;;;;;;2.40;78.01;99821.54;102564;1329;137080;-76
2021/12/18 11:18:36;;;;;;;21.30;9.80;;;;;;;2.39;77.81;99816.77;102533;1328;25265;-77
2021/12/18 11:21:03;;;;;;;22.40;9.10;;;;;;;2.40;78.12;99816.39;102489;1327;23311;-76
2021/12/18 11:24:01;;;;;;;20.20;10.20;;;;;;;2.40;78.02;99816.13;102600;1324;137438;-76
2021/12/18 11:26:44;;;;;;;23.20;10.70;;;;;;;2.42;77.98;99816.16;102689;1325;24915;-77
2021/12/18 11:29:18;;;;;;;22.00;10.10;;;;;;;2.42;78.10;99818.11;102614;1324;140520;-77
2021/12/18 11:31:46;;;;;;;21.30;10.50;;;;;;;2.46;78.30;99820.23;102785;1325;22609;-76
2021/12/18 11:34:15;;;;;;;21.30;10.30;;;;;;;2.51;78.22;99807.92;102614;1325;137390;-76
2021/12/18 11:36:44;;;;;;;20.30;10.40;;;;;;;2.52;77.99;99805.24;102620;1327;22588;-76
2021/12/18 11:39:14;;;;;;;21.70;9.90;;;;;;;2.54;77.87;99805.95;102743;1329;24270;-76
2021/12/18 11:41:46;;;;;;;23.10;11.70;;;;;;;2.57;78.05;99803.35;102576;1329;137828;-77
2021/12/18 11:44:52;;;;;;;23.10;10.70;;;;;;;2.61;77.90;99798.38;102608;1324;22663;-77
2021/12/18 11:47:25;;;;;;;17.60;10.00;;;;;;;2.62;77.63;99793.80;102347;1325;137997;-76
2021/12/18 11:49:56;;;;;;;24.20;9.60;;;;;;;2.62;77.55;99790.02;102209;1324;23232;-75
2021/12/18 11:52:23;;;;;;;21.40;10.40;;;;;;;2.60;77.63;99794.05;102594;1324;137071;-75
2021/12/18 11:54:54;;;;;;;25.80;12.40;;;;;;;2.57;77.62;99792.56;102811;1329;24455;-75
2021/12/18 11:57:49;;;;;;;29.10;14.00;;;;;;;2.57;77.92;99784.15;102836;1324;25339;-75
2021/12/18 12:00:18;;;;;;;25.80;11.70;;;;;;;2.59;77.78;99777.61;102968;1325;24230;-75
2021/12/18 12:02:48;;;;;;;32.50;13.30;;;;;;;2.61;77.59;99775.27;102895;1328;22666;-76
2021/12/18 12:05:19;;;;;;;32.60;14.40;;;;;;;2.62;77.62;99777.15;102075;1329;137341;-76
2021/12/18 12:07:50;;;;;;;27.30;12.30;;;;;;;2.63;77.76;99778.80;102544;1331;22596;-76
2021/12/18 12:10:23;;;;;;;33.40;15.10;;;;;;;2.62;77.53;99777.89;102620;1325;137586;-76
2021/12/18 12:12:54;;;;;;;23.70;12.50;;;;;;;2.60;77.56;99764.48;102826;1324;25519;-75
2021/12/18 12:15:27;;;;;;;33.30;15.30;;;;;;;2.58;77.62;99759.83;102634;1331;25391;-76
2021/12/18 12:18:03;;;;;;;32.90;15.40;;;;;;;2.57;77.85;99753.23;102788;1325;137937;-76
2021/12/18 12:20:38;;;;;;;37.00;15.60;;;;;;;2.61;77.97;99746.73;102600;1329;22596;-75
2021/12/18 12:23:07;;;;;;;35.00;16.10;;;;;;;2.65;77.91;99737.17;102655;1325;137221;-75
2021/12/18 12:25:41;;;;;;;30.90;14.00;;;;;;;2.69;77.80;99743.46;102602;1324;24188;-75
2021/12/18 12:28:14;;;;;;;34.40;15.50;;;;;;;2.70;77.68;99737.28;102664;1325;137448;-75
2021/12/18 12:30:44;;;;;;;34.10;15.70;;;;;;;2.70;78.19;99732.04;102803;1324;25275;-75
2021/12/18 12:33:22;;;;;;;29.50;15.70;;;;;;;2.71;77.84;99723.13;102758;1324;22659;-75
2021/12/18 12:35:59;;;;;;;33.00;14.20;;;;;;;2.70;77.57;99716.66;102139;1328;137997;-76
2021/12/18 12:38:30;;;;;;;29.00;13.80;;;;;;;2.69;77.61;99713.09;102244;1331;22839;-76
2021/12/18 12:41:24;;;;;;;28.30;13.90;;;;;;;2.72;77.71;99711.74;102220;1331;137279;-76
2021/12/18 12:43:51;;;;;;;31.50;15.40;;;;;;;2.73;77.46;99709.09;102572;1324;22710;-75
2021/12/18 12:46:20;;;;;;;29.90;13.60;;;;;;;2.75;77.70;99708.13;102593;1324;137697;-76
2021/12/18 12:49:06;;;;;;;30.50;14.50;;;;;;;2.75;77.34;99709.45;102637;1324;22598;-76
2021/12/18 12:52:04;;;;;;;31.80;14.80;;;;;;;2.70;77.35;99702.77;101984;1327;25318;-75
2021/12/18 12:54:48;;;;;;;28.80;14.00;;;;;;;2.69;77.70;99705.77;102126;1328;25253;-75
2021/12/18 12:57:21;;;;;;;29.80;14.60;;;;;;;2.69;77.79;99705.73;102053;1331;22579;-75
2021/12/18 12:59:53;;;;;;;25.20;12.60;;;;;;;2.70;77.64;99706.88;102365;1329;137987;-75
2021/12/18 13:02:21;;;;;;;24.70;11.90;;;;;;;2.66;77.63;99703.73;102830;1328;25458;-75
2021/12/18 13:04:48;;;;;;;31.80;14.60;;;;;;;2.62;77.78;99691.58;102195;1331;137697;-76
2021/12/18 13:07:15;;;;;;;25.40;12.90;;;;;;;2.60;78.13;99684.54;102757;1324;25565;-75
2021/12/18 13:09:46;;;;;;;27.20;13.80;;;;;;;2.57;77.97;99683.02;102693;1329;30574;-75
2021/12/18 13:12:16;;;;;;;26.90;12.40;;;;;;;2.54;78.06;99677.79;102482;1331;137971;-77
2021/12/18 13:14:45;;;;;;;26.70;12.50;;;;;;;2.53;78.10;99677.02;102584;1328;24269;-75
2021/12/18 13:17:27;;;;;;;29.80;13.30;;;;;;;2.53;78.27;99674.63;102846;1325;137774;-77
2021/12/18 13:20:05;;;;;;;25.50;12.60;;;;;;;2.53;78.38;99682.86;103016;1324;30243;-77
2021/12/18 13:22:53;;;;;;;31.30;13.60;;;;;;;2.52;78.46;99685.21;102362;1330;138098;-76
2021/12/18 13:25:20;;;;;;;26.10;13.20;;;;;;;2.51;78.79;99685.52;102305;1329;22643;-77
2021/12/18 13:28:06;;;;;;;27.40;13.30;;;;;;;2.48;78.58;99685.40;102139;1328;22600;-77
2021/12/18 13:30:36;;;;;;;24.10;12.40;;;;;;;2.45;78.56;99693.06;102320;1329;138072;-76
2021/12/18 13:33:05;;;;;;;30.90;14.50;;;;;;;2.42;78.67;99684.70;102182;1329;22659;-75
2021/12/18 13:35:36;;;;;;;25.60;12.80;;;;;;;2.41;79.05;99683.05;102329;1324;138014;-76
2021/12/18 13:38:16;;;;;;;22.20;12.00;;;;;;;2.41;79.45;99681.82;102392;1331;24278;-77
2021/12/18 13:40:47;;;;;;;27.70;13.40;;;;;;;2.39;79.40;99673.73;102128;1329;137298;-76
2021/12/18 13:43:18;;;;;;;28.00;13.70;;;;;;;2.37;79.72;99672.89;102199;1331;22573;-76
2021/12/18 13:46:01;;;;;;;20.90;11.10;;;;;;;2.37;79.82;99668.95;102224;1329;22694;-75
2021/12/18 13:48:34;;;;;;;23.40;11.20;;;;;;;2.34;79.89;99666.09;102620;1323;137936;-75
2021/12/18 13:51:01;;;;;;;27.00;12.00;;;;;;;2.31;80.06;99667.09;102460;1330;30639;-75
2021/12/18 13:53:28;;;;;;;22.80;12.00;;;;;;;2.28;80.39;99669.96;102378;1325;137467;-75
2021/12/18 13:55:57;;;;;;;22.50;12.10;;;;;;;2.25;80.80;99665.91;102343;1331;24316;-75
2021/12/18 13:58:26;;;;;;;26.60;13.90;;;;;;;2.22;80.89;99667.46;102964;1324;138435;-75
2021/12/18 14:01:13;;;;;;;25.30;12.60;;;;;;;2.20;81.04;99660.56;103156;1325;25681;-75
2021/12/18 14:03:59;;;;;;;29.90;14.10;;;;;;;2.19;81.06;99668.41;102741;1329;25433;-75
2021/12/18 14:06:46;;;;;;;26.80;13.90;;;;;;;2.19;81.32;99661.59;102580;1327;137394;-75
2021/12/18 14:09:21;;;;;;;25.20;13.70;;;;;;;2.17;81.40;99662.26;102422;1331;22946;-76
2021/12/18 14:12:21;;;;;;;26.70;14.90;;;;;;;2.16;81.44;99653.65;101923;1325;137182;-75
2021/12/18 14:14:51;;;;;;;26.60;14.50;;;;;;;2.15;81.57;99653.02;102378;1325;22649;-76
2021/12/18 14:17:32;;;;;;;24.80;13.00;;;;;;;2.14;81.66;99658.28;102259;1331;151226;-76
2021/12/18 14:20:12;;;;;;;29.60;15.20;;;;;;;2.14;81.66;99661.01;102567;1328;22607;-76
2021/12/18 14:22:41;;;;;;;25.00;13.60;;;;;;;2.14;81.85;99659.27;102585;1325;137509;-76
2021/12/18 14:25:16;;;;;;;31.60;15.10;;;;;;;2.13;81.94;99652.91;102381;1329;22593;-76
2021/12/18 14:27:54;;;;;;;34.90;17.80;;;;;;;2.12;82.17;99640.09;102359;1324;22610;-76
2021/12/18 14:30:25;;;;;;;35.30;16.40;;;;;;;2.11;82.19;99630.18;102505;1325;137869;-75
2021/12/18 14:33:04;;;;;;;27.90;13.20;;;;;;;2.11;82.19;99616.58;102595;1324;22586;-76
2021/12/18 14:35:31;;;;;;;27.20;14.20;;;;;;;2.11;82.23;99611.17;102671;1324;137487;-76
2021/12/18 14:38:00;;;;;;;32.40;16.50;;;;;;;2.11;82.29;99614.98;102962;1324;22577;-76
2021/12/18 14:40:31;;;;;;;34.60;15.70;;;;;;;2.09;82.28;99615.64;102389;1324;137574;-75
2021/12/18 14:43:11;;;;;;;37.30;18.30;;;;;;;2.09;82.38;99618.02;102723;1331;22584;-75
2021/12/18 14:45:39;;;;;;;26.90;13.80;;;;;;;2.11;82.50;99617.27;102681;1331;24809;-75
2021/12/18 14:48:06;;;;;;;31.70;16.00;;;;;;;2.13;82.43;99621.74;102911;1324;137750;-75
2021/12/18 14:50:41;;;;;;;28.60;14.80;;;;;;;2.14;82.56;99616.09;103460;1324;25483;-75
2021/12/18 14:53:08;;;;;;;27.30;14.70;;;;;;;2.14;82.65;99618.04;102808;1324;138086;-75
2021/12/18 14:55:56;;;;;;;38.30;18.10;;;;;;;2.13;82.54;99613.44;102745;1329;25239;-75
2021/12/18 14:58:32;;;;;;;39.30;18.10;;;;;;;2.15;82.72;99613.79;103016;1324;138548;-75
2021/12/18 15:01:07;;;;;;;36.80;18.10;;;;;;;2.18;82.77;99614.36;103083;1324;22599;-75
2021/12/18 15:03:54;;;;;;;39.20;18.70;;;;;;;2.20;82.68;99608.63;102652;1324;25362;-75
2021/12/18 15:06:27;;;;;;;41.50;18.70;;;;;;;2.20;82.81;99608.05;102946;1325;138054;-75
2021/12/18 15:09:15;;;;;;;47.90;21.90;;;;;;;2.21;82.93;99612.96;102658;1325;25342;-77
2021/12/18 15:11:43;;;;;;;42.90;19.40;;;;;;;2.22;82.88;99617.95;102778;1324;137546;-77
2021/12/18 15:14:15;;;;;;;35.70;18.90;;;;;;;2.21;82.72;99617.80;103247;1328;22640;-77
2021/12/18 15:16:45;;;;;;;41.30;19.90;;;;;;;2.21;82.92;99616.26;102692;1329;138847;-77
2021/12/18 15:19:21;;;;;;;39.40;21.10;;;;;;;2.19;83.11;99611.92;102917;1324;22589;-77
2021/12/18 15:21:51;;;;;;;35.40;19.50;;;;;;;2.16;83.22;99606.13;102729;1327;22599;-78
2021/12/18 15:24:20;;;;;;;44.90;22.90;;;;;;;2.15;83.51;99605.05;103070;1331;137394;-92
2021/12/18 15:26:52;;;;;;;50.90;23.10;;;;;;;2.12;83.49;99599.19;103560;1331;22719;-87
2021/12/18 15:29:22;;;;;;;46.70;22.70;;;;;;;2.13;83.90;99603.23;102984;1325;137998;-90
2021/12/18 15:31:51;;;;;;;49.10;23.20;;;;;;;2.16;83.96;99602.97;102879;1327;25265;-88
2021/12/18 15:34:23;;;;;;;44.10;22.80;;;;;;;2.17;84.03;99597.83;102684;1328;137377;-89
2021/12/18 15:36:54;;;;;;;46.50;24.50;;;;;;;2.15;84.06;99591.23;103156;1325;22586;-92
2021/12/18 15:39:22;;;;;;;49.80;25.20;;;;;;;2.14;84.20;99591.34;102554;1331;22669;-85
2021/12/18 15:42:04;;;;;;;49.70;25.20;;;;;;;2.12;84.24;99590.85;102821;1327;138814;-87
2021/12/18 15:44:33;;;;;;;64.60;29.80;;;;;;;2.13;84.46;99576.42;103266;1325;22669;-86
2021/12/18 15:47:06;;;;;;;62.10;30.10;;;;;;;2.12;84.66;99572.15;103189;1325;137569;-90
2021/12/18 15:49:33;;;;;;;53.30;26.70;;;;;;;2.12;84.92;99570.95;103274;1324;22593;-90
2021/12/18 15:52:00;;;;;;;52.90;27.10;;;;;;;2.09;85.18;99562.61;102597;1327;22649;-88
2021/12/18 15:54:27;;;;;;;61.10;28.90;;;;;;;2.07;85.32;99559.27;103081;1329;137892;-86
2021/12/18 15:56:55;;;;;;;57.90;28.70;;;;;;;2.06;85.64;99552.17;102947;1330;22919;-83
2021/12/18 15:59:22;;;;;;;53.50;28.40;;;;;;;2.06;85.82;99550.23;102897;1326;137902;-86
2021/12/18 16:01:49;;;;;;;58.80;28.50;;;;;;;2.06;85.94;99550.11;103160;1324;22593;-90
2021/12/18 16:04:16;;;;;;;51.70;25.80;;;;;;;2.04;86.20;99544.72;103027;1331;137911;-87
2021/12/18 16:06:44;;;;;;;57.20;27.50;;;;;;;2.02;86.24;99542.43;102742;1322;22760;-90
2021/12/18 16:09:11;;;;;;;53.40;24.60;;;;;;;2.01;86.54;99529.23;102479;1330;22593;-88
2021/12/18 16:11:39;;;;;;;67.00;30.70;;;;;;;1.99;86.51;99518.15;103289;1325;137523;-89
2021/12/18 16:14:07;;;;;;;70.10;31.60;;;;;;;1.97;86.75;99516.80;102842;1324;23503;-85
2021/12/18 16:16:34;;;;;;;63.80;30.00;;;;;;;1.95;86.98;99520.08;102328;1331;138119;-86
2021/12/18 16:19:01;;;;;;;60.40;27.70;;;;;;;1.92;87.06;99517.17;102733;1325;22755;-85
2021/12/18 16:21:28;;;;;;;55.80;27.40;;;;;;;1.89;87.12;99522.84;102882;1329;25496;-85
2021/12/18 16:23:56;;;;;;;57.40;28.10;;;;;;;1.87;87.47;99519.14;102682;1325;137734;-86
2021/12/18 16:26:23;;;;;;;49.30;24.40;;;;;;;1.84;87.52;99519.41;102564;1331;22623;-84
2021/12/18 16:28:50;;;;;;;47.80;25.10;;;;;;;1.82;88.04;99521.95;102689;1324;137986;-86
2021/12/18 16:31:18;;;;;;;51.00;27.20;;;;;;;1.83;88.23;99516.65;102762;1325;23988;-85
2021/12/18 16:33:45;;;;;;;50.60;25.50;;;;;;;1.83;88.20;99508.80;103086;1325;22603;-86
2021/12/18 16:36:15;;;;;;;57.80;27.30;;;;;;;1.83;88.27;99503.97;102756;1325;138478;-86
2021/12/18 16:38:45;;;;;;;56.90;27.80;;;;;;;1.83;88.22;99505.17;102769;1325;24304;-87
2021/12/18 16:41:16;;;;;;;49.30;23.10;;;;;;;1.84;88.63;99505.14;102612;1332;137592;-86
2021/12/18 16:43:45;;;;;;;60.70;28.90;;;;;;;1.84;88.56;99499.77;102714;1325;23392;-86
2021/12/18 16:46:14;;;;;;;56.70;28.10;;;;;;;1.86;88.81;99501.54;102518;1324;25367;-84
2021/12/18 16:48:42;;;;;;;53.20;26.20;;;;;;;1.88;88.91;99492.48;102809;1326;137722;-83
2021/12/18 16:51:09;;;;;;;66.80;28.50;;;;;;;1.90;88.81;99485.65;102805;1329;22597;-84
2021/12/18 16:53:37;;;;;;;50.10;23.40;;;;;;;1.93;88.77;99480.60;102572;1334;137197;-83
2021/12/18 16:56:07;;;;;;;56.40;26.40;;;;;;;1.92;88.76;99473.13;102846;1325;22652;-84
2021/12/18 16:58:35;;;;;;;48.90;24.70;;;;;;;1.92;88.74;99462.89;102700;1327;137661;-86
2021/12/18 17:01:07;;;;;;;48.80;23.80;;;;;;;1.93;88.84;99463.84;102377;1326;22596;-87
2021/12/18 17:03:39;;;;;;;57.20;25.60;;;;;;;1.95;88.86;99456.92;103233;1328;22564;-84
2021/12/18 17:06:06;;;;;;;46.90;23.60;;;;;;;1.96;88.89;99464.85;102706;1329;137161;-84
2021/12/18 17:08:34;;;;;;;49.70;25.00;;;;;;;1.95;88.88;99457.93;102788;1325;22676;-84
2021/12/18 17:11:01;;;;;;;58.20;26.60;;;;;;;1.93;88.85;99457.29;102574;1328;137789;-84
2021/12/18 17:13:28;;;;;;;46.50;25.30;;;;;;;1.92;88.96;99455.77;102982;1324;22608;-86
2021/12/18 17:15:55;;;;;;;47.70;22.90;;;;;;;1.93;88.98;99454.06;102564;1324;22652;-84
2021/12/18 17:18:23;;;;;;;49.20;22.90;;;;;;;1.93;89.08;99455.52;102536;1324;137535;-85
2021/12/18 17:20:50;;;;;;;48.70;21.60;;;;;;;1.93;89.04;99453.89;102740;1328;24104;-85
2021/12/18 17:23:17;;;;;;;48.30;22.70;;;;;;;1.91;89.18;99452.28;102626;1325;137388;-85
2021/12/18 17:25:44;;;;;;;48.00;23.10;;;;;;;1.88;89.14;99443.59;102750;1331;22786;-85
2021/12/18 17:28:11;;;;;;;49.40;25.50;;;;;;;1.88;89.26;99444.65;102780;1327;22609;-86
2021/12/18 17:30:39;;;;;;;43.30;21.10;;;;;;;1.89;89.34;99438.65;102393;1327;137624;-84
2021/12/18 17:33:06;;;;;;;36.60;20.50;;;;;;;1.89;89.10;99440.13;103204;1329;22591;-87
2021/12/18 17:35:34;;;;;;;46.90;21.50;;;;;;;1.88;89.19;99444.29;102539;1328;137688;-87
2021/12/18 17:38:03;;;;;;;50.80;22.90;;;;;;;1.88;89.16;99436.48;102941;1324;24414;-85
2021/12/18 17:40:30;;;;;;;45.50;21.40;;;;;;;1.87;89.04;99429.61;102920;1325;138211;-84
2021/12/18 17:42:57;;;;;;;52.10;24.00;;;;;;;1.87;89.10;99427.83;102784;1325;24259;-84
2021/12/18 17:45:25;;;;;;;46.10;22.20;;;;;;;1.88;89.14;99424.50;102874;1324;22700;-85
2021/12/18 17:47:54;;;;;;;48.60;23.70;;;;;;;1.87;89.12;99419.16;102853;1325;137744;-85
2021/12/18 17:50:22;;;;;;;49.30;23.50;;;;;;;1.87;89.15;99418.13;102667;1327;24263;-85
2021/12/18 17:52:49;;;;;;;53.00;23.80;;;;;;;1.85;88.97;99411.48;102804;1328;138452;-85
2021/12/18 17:55:18;;;;;;;48.60;22.40;;;;;;;1.85;88.99;99410.60;103055;1324;22675;-85
2021/12/18 17:57:46;;;;;;;51.80;22.10;;;;;;;1.85;88.97;99412.75;103599;1324;22640;-86
2021/12/18 18:00:19;;;;;;;49.50;24.00;;;;;;;1.85;88.97;99407.27;102733;1328;137415;-85
2021/12/18 18:03:01;;;;;;;53.30;23.10;;;;;;;1.84;88.84;99400.36;102651;1328;24373;-85
2021/12/18 18:05:29;;;;;;;49.00;23.20;;;;;;;1.85;88.90;99396.71;102753;1324;138064;-86
2021/12/18 18:07:56;;;;;;;45.40;21.70;;;;;;;1.87;88.71;99404.16;102596;1327;22595;-84
2021/12/18 18:10:42;;;;;;;41.90;20.80;;;;;;;1.87;88.74;99407.52;102550;1324;138388;-86
2021/12/18 18:13:16;;;;;;;44.90;19.40;;;;;;;1.87;88.65;99413.80;102731;1324;25281;-84
2021/12/18 18:15:44;;;;;;;50.80;21.70;;;;;;;1.86;88.49;99410.16;102785;1329;24277;-85
2021/12/18 18:18:26;;;;;;;48.40;22.30;;;;;;;1.86;88.45;99402.11;102376;1324;138010;-86
2021/12/18 18:20:55;;;;;;;42.80;20.40;;;;;;;1.87;88.31;99402.41;102324;1325;24491;-84
2021/12/18 18:23:23;;;;;;;44.30;20.00;;;;;;;1.88;88.20;99401.02;103062;1324;138282;-84
2021/12/18 18:25:51;;;;;;;45.00;21.50;;;;;;;1.89;88.36;99408.44;102733;1324;22597;-85
2021/12/18 18:28:18;;;;;;;46.60;21.40;;;;;;;1.90;88.29;99408.02;102638;1327;25322;-86
2021/12/18 18:30:46;;;;;;;43.60;20.50;;;;;;;1.91;88.23;99408.97;102936;1324;137535;-84
2021/12/18 18:33:14;;;;;;;46.00;21.60;;;;;;;1.93;88.13;99395.91;102924;1324;22928;-84